createdAt,value
2018-06-30T00:02:17.489Z,52.59
2018-06-30T00:04:50.989Z,53.69
2018-06-30T00:07:20.443Z,52.97
2018-06-30T00:09:48.972Z,52.79
2018-06-30T00:12:17.595Z,53.45
2018-06-30T00:14:46.238Z,53.35
2018-06-30T00:17:14.887Z,53.82
2018-06-30T00:19:43.465Z,53.32
2018-06-30T00:22:12.041Z,54.42
2018-06-30T00:24:40.674Z,54.79
2018-06-30T00:27:41.847Z,55.52
2018-06-30T00:30:10.443Z,55.62
2018-06-30T00:32:38.983Z,55.54
2018-06-30T00:35:07.616Z,55.58
2018-06-30T00:37:36.242Z,56.44
2018-06-30T00:40:05.041Z,56.46
2018-06-30T00:42:33.573Z,56.26
2018-06-30T00:45:02.166Z,58.41
2018-06-30T00:47:30.994Z,56.92
2018-06-30T00:49:59.640Z,56.90
2018-06-30T00:52:28.206Z,55.90
2018-06-30T00:54:56.691Z,56.94
2018-06-30T00:57:25.222Z,57.44
2018-06-30T00:59:53.759Z,56.57
2018-06-30T01:02:22.440Z,57.00
2018-06-30T01:04:50.939Z,58.73
2018-06-30T01:07:19.554Z,58.42
2018-06-30T01:09:48.178Z,58.43
2018-06-30T01:12:16.764Z,57.92
2018-06-30T01:14:45.359Z,59.50
2018-06-30T01:17:13.989Z,58.09
2018-06-30T01:19:42.520Z,58.22
2018-06-30T01:22:11.052Z,58.33
2018-06-30T01:24:39.691Z,58.15
2018-06-30T01:27:08.267Z,57.66
2018-06-30T01:29:36.901Z,59.59
2018-06-30T01:32:05.849Z,59.81
2018-06-30T01:34:34.424Z,59.71
2018-06-30T01:37:02.975Z,59.66
2018-06-30T01:39:31.642Z,59.73
2018-06-30T01:42:00.146Z,59.42
2018-06-30T01:44:28.707Z,59.47
2018-06-30T01:46:57.230Z,58.95
2018-06-30T01:49:25.768Z,60.51
2018-06-30T01:51:54.243Z,59.82
2018-06-30T01:54:22.832Z,60.22
2018-06-30T01:56:51.319Z,59.71
2018-06-30T01:59:19.822Z,59.49
2018-06-30T02:01:48.643Z,59.49
2018-06-30T02:04:17.215Z,59.53
2018-06-30T02:06:45.750Z,59.54
2018-06-30T02:09:14.320Z,59.56
2018-06-30T02:11:42.810Z,59.86
2018-06-30T02:14:11.331Z,59.67
2018-06-30T02:16:39.915Z,59.34
2018-06-30T02:19:08.523Z,59.45
2018-06-30T02:21:37.032Z,59.89
2018-06-30T02:24:05.723Z,59.92
2018-06-30T02:26:34.246Z,60.21
2018-06-30T02:29:02.781Z,60.64
2018-06-30T02:31:31.287Z,59.76
2018-06-30T02:33:59.852Z,59.05
2018-06-30T02:36:28.387Z,59.73
2018-06-30T02:38:56.968Z,60.01
2018-06-30T02:41:25.497Z,58.73
2018-06-30T02:43:54.036Z,58.67
2018-06-30T02:46:22.604Z,58.76
2018-06-30T02:48:51.155Z,58.30
2018-06-30T02:51:19.807Z,59.11
2018-06-30T02:53:48.361Z,58.52
2018-06-30T02:56:16.874Z,58.98
2018-06-30T02:58:45.391Z,58.93
2018-06-30T03:01:14.004Z,58.51
2018-06-30T03:03:42.640Z,59.17
2018-06-30T03:06:11.226Z,59.42
2018-06-30T03:08:39.724Z,59.65
2018-06-30T03:11:08.287Z,61.81
2018-06-30T03:13:36.975Z,59.94
2018-06-30T03:16:05.479Z,59.26
2018-06-30T03:18:34.098Z,59.27
2018-06-30T03:21:02.721Z,58.97
2018-06-30T03:23:31.260Z,58.72
2018-06-30T03:25:59.886Z,58.95
2018-06-30T03:28:28.406Z,58.70
2018-06-30T03:30:56.903Z,58.00
2018-06-30T03:33:25.431Z,59.46
2018-06-30T03:35:53.927Z,58.73
2018-06-30T03:38:22.435Z,57.35
2018-06-30T03:40:50.957Z,57.93
2018-06-30T03:43:19.439Z,57.86
2018-06-30T03:45:47.907Z,56.96
2018-06-30T03:48:16.412Z,56.83
2018-06-30T03:50:44.910Z,57.52
2018-06-30T03:53:13.481Z,56.73
2018-06-30T03:55:42.024Z,56.41
2018-06-30T03:58:10.542Z,57.75
2018-06-30T04:00:39.120Z,57.01
2018-06-30T04:03:07.729Z,57.89
2018-06-30T04:05:36.404Z,56.48
2018-06-30T04:08:05.080Z,56.94
2018-06-30T04:10:33.619Z,57.41
2018-06-30T04:13:02.177Z,57.06
2018-06-30T04:15:30.932Z,56.85
2018-06-30T04:17:59.511Z,56.21
2018-06-30T04:20:28.144Z,56.17
2018-06-30T04:22:56.630Z,56.75
2018-06-30T04:25:25.151Z,56.40
2018-06-30T04:27:53.675Z,55.89
2018-06-30T04:30:22.327Z,55.65
2018-06-30T04:32:50.860Z,55.94
2018-06-30T04:35:19.407Z,56.21
2018-06-30T04:37:47.979Z,55.37
2018-06-30T04:40:16.462Z,55.54
2018-06-30T04:42:44.948Z,56.31
2018-06-30T04:45:13.567Z,56.43
2018-06-30T04:47:42.152Z,56.66
2018-06-30T04:50:10.669Z,55.77
2018-06-30T04:52:39.166Z,57.04
2018-06-30T04:55:07.936Z,56.88
2018-06-30T04:57:36.505Z,57.21
2018-06-30T05:00:05.828Z,56.90
2018-06-30T05:02:34.547Z,58.20
2018-06-30T05:05:03.200Z,57.31
2018-06-30T05:07:31.727Z,57.93
2018-06-30T05:10:00.442Z,57.63
2018-06-30T05:12:29.137Z,58.85
2018-06-30T05:14:57.735Z,56.82
2018-06-30T05:17:26.382Z,58.25
2018-06-30T05:19:54.901Z,56.81
2018-06-30T05:22:23.485Z,56.15
2018-06-30T05:24:51.998Z,58.12
2018-06-30T05:27:20.542Z,56.90
2018-06-30T05:29:49.019Z,56.46
2018-06-30T05:32:17.594Z,56.39
2018-06-30T05:34:46.138Z,56.27
2018-06-30T05:37:14.784Z,55.63
2018-06-30T05:39:43.359Z,55.71
2018-06-30T05:42:11.949Z,56.37
2018-06-30T05:44:40.455Z,56.65
2018-06-30T05:47:09.005Z,55.30
2018-06-30T05:49:37.519Z,54.98
2018-06-30T05:52:07.196Z,55.24
2018-06-30T05:54:35.880Z,55.16
2018-06-30T05:57:04.503Z,54.20
2018-06-30T05:59:33.148Z,54.37
2018-06-30T06:02:01.675Z,54.40
2018-06-30T06:04:30.314Z,53.68
2018-06-30T06:06:59.306Z,53.50
2018-06-30T06:09:27.890Z,53.40
2018-06-30T06:11:56.415Z,53.21
2018-06-30T06:14:25.055Z,52.73
2018-06-30T06:16:53.587Z,52.22
2018-06-30T06:19:22.182Z,52.33
2018-06-30T06:21:50.805Z,51.96
2018-06-30T06:24:19.389Z,51.60
2018-06-30T06:26:47.970Z,51.29
2018-06-30T06:29:16.531Z,51.73
2018-06-30T06:31:45.042Z,51.41
2018-06-30T06:34:13.540Z,50.78
2018-06-30T06:36:42.072Z,50.72
2018-06-30T06:39:11.497Z,50.30
2018-06-30T06:41:40.567Z,50.25
2018-06-30T06:44:09.072Z,50.30
2018-06-30T06:46:37.597Z,49.91
2018-06-30T06:49:06.342Z,49.87
2018-06-30T06:51:34.925Z,49.58
2018-06-30T06:54:03.610Z,49.45
2018-06-30T06:56:32.137Z,48.96
2018-06-30T06:59:00.627Z,48.87
2018-06-30T07:01:29.157Z,48.46
2018-06-30T07:03:57.700Z,48.91
2018-06-30T07:06:26.320Z,48.68
2018-06-30T07:08:54.903Z,48.33
2018-06-30T07:11:23.452Z,47.42
2018-06-30T07:13:52.389Z,46.95
2018-06-30T07:16:20.971Z,46.92
2018-06-30T07:18:49.572Z,46.17
2018-06-30T07:21:18.229Z,45.81
2018-06-30T07:23:46.908Z,45.80
2018-06-30T07:26:15.606Z,46.64
2018-06-30T07:28:44.237Z,46.55
2018-06-30T07:31:12.770Z,44.35
2018-06-30T07:33:41.345Z,44.17
2018-06-30T07:36:10.032Z,44.86
2018-06-30T07:38:38.614Z,44.54
2018-06-30T07:41:07.199Z,43.67
2018-06-30T07:43:35.886Z,44.03
2018-06-30T07:46:04.569Z,41.69
2018-06-30T07:48:33.227Z,43.44
2018-06-30T07:51:01.912Z,43.19
2018-06-30T07:53:30.624Z,43.08
2018-06-30T07:55:59.189Z,41.38
2018-06-30T07:58:27.699Z,43.34
2018-06-30T08:00:56.474Z,41.09
2018-06-30T08:03:25.057Z,41.11
2018-06-30T08:05:53.946Z,41.16
2018-06-30T08:08:22.529Z,39.70
2018-06-30T08:10:51.061Z,40.16
2018-06-30T08:13:19.591Z,40.97
2018-06-30T08:15:48.127Z,40.51
2018-06-30T08:18:17.022Z,40.28
2018-06-30T08:20:45.647Z,39.98
2018-06-30T08:23:14.168Z,40.38
2018-06-30T08:25:42.814Z,38.20
2018-06-30T08:28:11.461Z,39.07
2018-06-30T08:30:40.083Z,38.34
2018-06-30T08:33:08.575Z,37.22
2018-06-30T08:35:37.150Z,37.88
2018-06-30T08:38:05.832Z,37.58
2018-06-30T08:40:34.825Z,36.63
2018-06-30T08:43:03.405Z,37.33
2018-06-30T08:45:31.912Z,35.57
2018-06-30T08:48:00.516Z,37.39
2018-06-30T08:50:29.156Z,37.51
2018-06-30T08:55:40.910Z,37.52
2018-06-30T08:58:09.546Z,37.26
2018-06-30T09:00:38.254Z,36.29
2018-06-30T09:03:06.917Z,36.32
2018-06-30T09:05:35.601Z,35.49
2018-06-30T09:08:04.157Z,35.83
2018-06-30T09:10:32.743Z,36.23
2018-06-30T09:13:01.283Z,35.54
2018-06-30T09:15:29.896Z,34.94
2018-06-30T09:17:58.461Z,31.82
2018-06-30T09:20:27.101Z,34.15
2018-06-30T09:22:55.631Z,33.44
2018-06-30T09:25:24.572Z,34.51
2018-06-30T09:27:53.158Z,34.41
2018-06-30T09:30:21.738Z,34.61
2018-06-30T09:32:50.322Z,34.38
2018-06-30T09:35:19.005Z,34.00
2018-06-30T09:37:47.589Z,33.70
2018-06-30T09:40:16.219Z,34.47
2018-06-30T09:42:44.887Z,34.56
2018-06-30T09:45:13.440Z,33.80
2018-06-30T09:47:42.125Z,33.50
2018-06-30T09:50:10.912Z,33.03
2018-06-30T09:52:39.598Z,32.80
2018-06-30T09:55:08.240Z,32.97
2018-06-30T09:57:36.945Z,34.41
2018-06-30T10:00:07.496Z,33.57
2018-06-30T10:02:36.181Z,33.09
2018-06-30T10:05:04.882Z,32.47
2018-06-30T10:07:33.547Z,32.68
2018-06-30T10:10:02.071Z,32.33
2018-06-30T10:12:30.597Z,32.06
2018-06-30T10:14:59.091Z,32.21
2018-06-30T10:17:27.591Z,33.66
2018-06-30T10:19:56.134Z,31.83
2018-06-30T10:22:24.710Z,33.19
2018-06-30T10:24:53.325Z,31.89
2018-06-30T10:27:21.966Z,32.22
2018-06-30T10:29:50.596Z,32.40
2018-06-30T10:32:19.176Z,31.98
2018-06-30T10:34:47.758Z,32.27
2018-06-30T10:37:16.316Z,32.55
2018-06-30T10:39:44.830Z,32.42
2018-06-30T10:42:13.467Z,32.67
2018-06-30T10:44:42.133Z,32.66
2018-06-30T10:47:10.715Z,32.91
2018-06-30T10:49:39.255Z,31.94
2018-06-30T10:52:07.839Z,33.42
2018-06-30T10:54:36.470Z,32.83
2018-06-30T10:57:05.107Z,34.04
2018-06-30T10:59:34.662Z,32.68
2018-06-30T11:02:03.364Z,33.58
2018-06-30T11:04:31.928Z,33.30
2018-06-30T11:07:00.434Z,33.30
2018-06-30T11:09:29.097Z,32.44
2018-06-30T11:11:57.731Z,33.25
2018-06-30T11:14:26.967Z,32.42
2018-06-30T11:16:55.613Z,33.13
2018-06-30T11:19:24.300Z,32.69
2018-06-30T11:21:52.790Z,32.70
2018-06-30T11:24:21.466Z,30.89
2018-06-30T11:26:50.041Z,32.99
2018-06-30T11:29:18.714Z,31.67
2018-06-30T11:31:47.258Z,31.63
2018-06-30T11:34:15.842Z,32.98
2018-06-30T11:36:44.351Z,31.81
2018-06-30T11:39:13.827Z,31.34
2018-06-30T11:41:43.287Z,31.97
2018-06-30T11:44:12.218Z,31.64
2018-06-30T11:46:40.775Z,31.91
2018-06-30T11:49:09.344Z,32.13
2018-06-30T11:51:38.299Z,31.93
2018-06-30T11:54:07.226Z,32.16
2018-06-30T11:56:36.221Z,32.10
2018-06-30T11:59:04.904Z,31.57
2018-06-30T12:01:36.294Z,31.76
2018-06-30T12:04:04.988Z,31.59
2018-06-30T12:06:33.578Z,31.90
2018-06-30T12:09:02.127Z,30.79
2018-06-30T12:11:30.735Z,31.32
2018-06-30T12:13:59.370Z,31.09
2018-06-30T12:16:27.957Z,31.11
2018-06-30T12:18:56.483Z,31.52
2018-06-30T12:21:25.116Z,31.14
2018-06-30T12:23:53.623Z,32.31
2018-06-30T12:26:22.239Z,31.38
2018-06-30T12:28:50.813Z,30.92
2018-06-30T12:31:19.348Z,30.93
2018-06-30T12:33:47.930Z,30.95
2018-06-30T12:36:16.513Z,31.71
2018-06-30T12:38:45.041Z,31.31
2018-06-30T12:41:13.595Z,32.30
2018-06-30T12:43:42.214Z,31.56
2018-06-30T12:46:10.887Z,31.89
2018-06-30T12:48:39.528Z,32.67
2018-06-30T12:51:08.236Z,32.06
2018-06-30T12:53:37.205Z,32.97
2018-06-30T12:56:06.350Z,32.06
2018-06-30T12:58:34.986Z,31.53
2018-06-30T13:01:03.673Z,32.08
2018-06-30T13:03:32.258Z,32.54
2018-06-30T13:06:00.799Z,32.14
2018-06-30T13:08:29.299Z,31.74
2018-06-30T13:10:57.859Z,31.31
2018-06-30T13:13:26.850Z,31.19
2018-06-30T13:15:55.351Z,31.22
2018-06-30T13:18:23.895Z,30.63
2018-06-30T13:20:52.538Z,30.04
2018-06-30T13:23:21.226Z,29.43
2018-06-30T13:25:49.753Z,29.26
2018-06-30T13:28:18.388Z,29.27
2018-06-30T13:30:46.977Z,30.65
2018-06-30T13:33:15.658Z,28.52
2018-06-30T13:35:44.240Z,28.40
2018-06-30T13:38:12.925Z,27.51
2018-06-30T13:40:41.524Z,26.17
2018-06-30T13:43:10.220Z,27.14
2018-06-30T13:45:41.747Z,27.04
2018-06-30T13:48:10.534Z,25.71
2018-06-30T13:50:39.222Z,26.45
2018-06-30T13:53:07.800Z,26.26
2018-06-30T13:55:36.539Z,26.22
2018-06-30T13:58:05.626Z,25.54
2018-06-30T14:00:34.344Z,26.23
2018-06-30T14:03:02.952Z,26.19
2018-06-30T14:05:31.517Z,27.14
2018-06-30T14:08:00.034Z,28.12
2018-06-30T14:10:28.651Z,26.37
2018-06-30T14:12:57.181Z,26.13
2018-06-30T14:15:25.764Z,25.95
2018-06-30T14:17:54.272Z,26.34
2018-06-30T14:20:22.883Z,26.92
2018-06-30T14:22:51.416Z,26.62
2018-06-30T14:25:19.994Z,27.18
2018-06-30T14:27:48.739Z,26.64
2018-06-30T14:30:17.575Z,26.55
2018-06-30T14:32:46.155Z,26.39
2018-06-30T14:35:14.739Z,26.19
2018-06-30T14:37:43.417Z,27.04
2018-06-30T14:40:12.107Z,25.91
2018-06-30T14:42:40.689Z,26.12
2018-06-30T14:45:09.375Z,24.44
2018-06-30T14:47:37.879Z,24.40
2018-06-30T14:50:06.540Z,25.45
2018-06-30T14:52:35.225Z,24.29
2018-06-30T14:55:03.948Z,24.54
2018-06-30T14:57:32.519Z,23.70
2018-06-30T15:00:01.077Z,23.63
2018-06-30T15:02:29.823Z,23.59
2018-06-30T15:04:58.345Z,24.12
2018-06-30T15:07:26.987Z,22.38
2018-06-30T15:09:55.511Z,21.81
2018-06-30T15:12:24.123Z,22.89
2018-06-30T15:14:52.778Z,22.62
2018-06-30T15:17:21.278Z,22.51
2018-06-30T15:19:49.868Z,22.83
2018-06-30T15:22:18.527Z,23.19
2018-06-30T15:24:47.110Z,24.06
2018-06-30T15:27:15.744Z,24.66
2018-06-30T15:29:44.281Z,24.66
2018-06-30T15:32:12.960Z,24.85
2018-06-30T15:34:41.615Z,24.59
2018-06-30T15:37:10.229Z,25.01
2018-06-30T15:39:38.875Z,25.07
2018-06-30T15:42:07.455Z,24.72
2018-06-30T15:44:36.081Z,25.93
2018-06-30T15:47:04.835Z,24.84
2018-06-30T15:49:33.322Z,25.12
2018-06-30T15:52:02.084Z,25.23
2018-06-30T15:54:30.662Z,24.60
2018-06-30T15:56:59.407Z,25.08
2018-06-30T15:59:28.008Z,24.58
2018-06-30T16:01:56.654Z,25.37
2018-06-30T16:04:25.218Z,25.83
2018-06-30T16:06:53.833Z,26.12
2018-06-30T16:09:22.378Z,26.38
2018-06-30T16:11:50.996Z,25.77
2018-06-30T16:14:19.544Z,26.51
2018-06-30T16:16:48.170Z,26.40
2018-06-30T16:19:16.804Z,26.96
2018-06-30T16:21:45.387Z,27.37
2018-06-30T16:24:14.021Z,27.23
2018-06-30T16:26:42.704Z,28.16
2018-06-30T16:29:11.204Z,27.34
2018-06-30T16:31:39.727Z,28.87
2018-06-30T16:34:08.352Z,28.40
2018-06-30T16:36:36.839Z,28.22
2018-06-30T16:39:08.250Z,28.46
2018-06-30T16:41:36.772Z,28.38
2018-06-30T16:44:05.816Z,28.40
2018-06-30T16:46:34.367Z,28.76
2018-06-30T16:49:02.888Z,28.82
2018-06-30T16:51:31.706Z,29.61
2018-06-30T16:54:00.289Z,29.46
2018-06-30T16:56:28.831Z,29.75
2018-06-30T16:58:57.379Z,29.59
2018-06-30T17:01:25.895Z,29.71
2018-06-30T17:03:54.460Z,29.76
2018-06-30T17:06:23.204Z,29.76
2018-06-30T17:08:51.787Z,29.90
2018-06-30T17:11:20.313Z,30.16
2018-06-30T17:13:48.871Z,29.84
2018-06-30T17:16:17.433Z,30.22
2018-06-30T17:18:45.914Z,30.55
2018-06-30T17:21:14.436Z,29.97
2018-06-30T17:23:45.181Z,30.78
2018-06-30T17:26:13.752Z,30.77
2018-06-30T17:28:42.279Z,30.64
2018-06-30T17:31:11.721Z,30.50
2018-06-30T17:33:40.303Z,29.51
2018-06-30T17:36:08.912Z,29.39
2018-06-30T17:38:37.648Z,29.40
2018-06-30T17:41:06.293Z,30.10
2018-06-30T17:43:34.867Z,27.82
2018-06-30T17:46:03.605Z,27.92
2018-06-30T17:48:32.185Z,28.29
2018-06-30T17:51:00.809Z,28.21
2018-06-30T17:53:29.493Z,27.35
2018-06-30T17:55:58.051Z,27.67
2018-06-30T17:58:26.721Z,27.13
2018-06-30T18:00:55.407Z,27.41
2018-06-30T18:03:23.992Z,28.09
2018-06-30T18:05:52.534Z,28.77
2018-06-30T18:08:21.489Z,28.26
2018-06-30T18:10:50.095Z,28.84
2018-06-30T18:13:18.734Z,28.62
2018-06-30T18:15:47.412Z,28.77
2018-06-30T18:18:16.030Z,29.58
2018-06-30T18:20:44.947Z,29.68
2018-06-30T18:23:13.496Z,30.12
2018-06-30T18:25:42.099Z,30.63
2018-06-30T18:28:10.791Z,30.42
2018-06-30T18:30:39.647Z,31.02
2018-06-30T18:33:08.314Z,31.69
2018-06-30T18:35:37.057Z,31.66
2018-06-30T18:38:05.684Z,32.57
2018-06-30T18:40:34.365Z,32.36
2018-06-30T18:43:02.994Z,33.30
2018-06-30T18:45:31.639Z,33.69
2018-06-30T18:48:00.174Z,34.05
2018-06-30T18:50:28.841Z,34.39
2018-06-30T18:52:57.477Z,34.30
2018-06-30T18:55:26.023Z,34.57
2018-06-30T18:57:54.627Z,35.20
2018-06-30T19:00:23.237Z,35.91
2018-06-30T19:02:51.944Z,36.01
2018-06-30T19:05:20.555Z,36.12
2018-06-30T19:07:49.956Z,36.54
2018-06-30T19:10:19.339Z,36.99
2018-06-30T19:12:48.302Z,37.33
2018-06-30T19:15:16.957Z,37.53
2018-06-30T19:17:45.587Z,37.55
2018-06-30T19:20:14.504Z,38.20
2018-06-30T19:22:43.719Z,39.06
2018-06-30T19:25:12.307Z,39.18
2018-06-30T19:27:40.944Z,38.48
2018-06-30T19:30:09.614Z,39.07
2018-06-30T19:32:38.359Z,40.21
2018-06-30T19:35:07.129Z,40.21
2018-06-30T19:37:35.871Z,39.48
2018-06-30T19:40:04.496Z,41.03
2018-06-30T19:42:33.082Z,40.50
2018-06-30T19:45:01.600Z,41.72
2018-06-30T19:47:30.817Z,42.21
2018-06-30T19:49:59.749Z,42.50
2018-06-30T19:52:28.558Z,42.52
2018-06-30T19:54:57.072Z,41.85
2018-06-30T19:57:25.762Z,42.23
2018-06-30T19:59:54.275Z,42.68
2018-06-30T20:02:23.245Z,42.83
2018-06-30T20:04:52.127Z,42.34
2018-06-30T20:07:20.959Z,44.57
2018-06-30T20:09:49.458Z,44.35
2018-06-30T20:12:18.110Z,43.30
2018-06-30T20:14:46.623Z,45.08
2018-06-30T20:17:15.353Z,43.89
2018-06-30T20:19:44.012Z,44.70
2018-06-30T20:22:12.514Z,44.55
2018-06-30T20:24:41.038Z,45.19
2018-06-30T20:27:09.739Z,44.41
2018-06-30T20:29:38.293Z,45.72
2018-06-30T20:32:07.919Z,45.41
2018-06-30T20:34:37.171Z,45.42
2018-06-30T20:37:06.104Z,45.02
2018-06-30T20:39:34.772Z,45.37
2018-06-30T20:42:03.271Z,44.76
2018-06-30T20:44:31.976Z,45.20
2018-06-30T20:47:01.414Z,44.90
2018-06-30T20:49:30.032Z,45.67
2018-06-30T20:51:58.688Z,45.94
2018-06-30T20:54:27.386Z,46.66
2018-06-30T20:57:00.139Z,45.71
2018-06-30T20:59:29.695Z,46.11
2018-06-30T21:01:58.543Z,46.46
2018-06-30T21:04:27.333Z,46.80
2018-06-30T21:06:56.016Z,46.60
2018-06-30T21:09:24.705Z,46.39
2018-06-30T21:11:53.385Z,46.26
2018-06-30T21:14:22.174Z,47.24
2018-06-30T21:16:50.696Z,47.33
2018-06-30T21:19:19.544Z,46.72
2018-06-30T21:21:48.155Z,47.13
2018-06-30T21:24:16.963Z,48.03
2018-06-30T21:26:45.521Z,47.44
2018-06-30T21:29:14.183Z,47.16
2018-06-30T21:31:42.807Z,46.93
2018-06-30T21:34:11.451Z,47.92
2018-06-30T21:36:40.072Z,48.05
2018-06-30T21:39:11.459Z,48.27
2018-06-30T21:41:40.299Z,47.43
2018-06-30T21:44:09.026Z,47.94
2018-06-30T21:46:37.683Z,48.38
2018-06-30T21:49:06.351Z,48.43
2018-06-30T21:51:34.926Z,49.24
2018-06-30T21:54:03.486Z,49.16
2018-06-30T21:56:32.124Z,49.39
2018-06-30T21:59:00.766Z,48.60
2018-06-30T22:01:29.288Z,48.70
2018-06-30T22:03:58.340Z,48.85
2018-06-30T22:06:26.973Z,48.61
2018-06-30T22:08:56.186Z,49.13
2018-06-30T22:11:24.846Z,49.21
2018-06-30T22:13:53.487Z,49.37
2018-06-30T22:16:22.173Z,49.01
2018-06-30T22:18:50.821Z,49.24
2018-06-30T22:21:19.426Z,48.92
2018-06-30T22:23:48.023Z,49.15
2018-06-30T22:26:16.540Z,49.18
2018-06-30T22:28:45.175Z,49.38
2018-06-30T22:31:13.706Z,48.70
2018-06-30T22:33:42.303Z,49.09
2018-06-30T22:36:10.879Z,48.33
2018-06-30T22:38:39.520Z,48.01
2018-06-30T22:41:08.062Z,48.40
2018-06-30T22:43:37.959Z,48.50
2018-06-30T22:46:07.025Z,48.32
2018-06-30T22:48:35.633Z,48.68
2018-06-30T22:51:04.183Z,48.83
2018-06-30T22:53:32.920Z,48.58
2018-06-30T22:56:01.546Z,49.08
2018-06-30T22:58:30.122Z,49.97
2018-06-30T23:00:58.619Z,49.21
2018-06-30T23:03:27.192Z,50.19
2018-06-30T23:05:56.325Z,49.27
2018-06-30T23:08:24.928Z,49.48
2018-06-30T23:10:53.582Z,49.14
2018-06-30T23:13:22.681Z,50.13
2018-06-30T23:15:51.399Z,50.46
2018-06-30T23:18:19.921Z,48.94
2018-06-30T23:20:48.606Z,50.44
2018-06-30T23:23:17.138Z,49.36
2018-06-30T23:25:45.692Z,49.17
2018-06-30T23:28:14.357Z,49.05
2018-06-30T23:30:42.995Z,49.35
2018-06-30T23:33:11.731Z,49.84
2018-06-30T23:35:40.407Z,49.74
2018-06-30T23:38:09.041Z,50.46
2018-06-30T23:40:37.628Z,49.96
2018-06-30T23:43:06.363Z,49.40
2018-06-30T23:45:34.903Z,49.37
2018-06-30T23:48:03.526Z,49.82
2018-06-30T23:50:32.108Z,49.51
2018-06-30T23:53:00.647Z,49.57
2018-06-30T23:55:29.275Z,49.54
2018-06-30T23:57:57.853Z,50.06
